createdAt,value
2018-10-11T00:01:29.058Z,33.60
2018-10-11T00:03:58.262Z,38.70
2018-10-11T00:06:27.458Z,34.60
2018-10-11T00:08:56.709Z,37.70
2018-10-11T00:11:25.929Z,33.70
2018-10-11T00:13:55.191Z,36.70
2018-10-11T00:16:24.417Z,31.40
2018-10-11T00:18:54.266Z,30.00
2018-10-11T00:21:23.066Z,39.20
2018-10-11T00:23:52.561Z,33.53
2018-10-11T00:26:21.758Z,37.10
2018-10-11T00:28:50.982Z,36.43
2018-10-11T00:31:20.171Z,37.77
2018-10-11T00:33:49.429Z,37.00
2018-10-11T00:36:18.818Z,39.47
2018-10-11T00:38:47.986Z,39.30
2018-10-11T00:41:17.262Z,41.30
2018-10-11T00:43:46.432Z,39.53
2018-10-11T00:46:15.692Z,44.07
2018-10-11T00:48:44.902Z,42.40
2018-10-11T00:51:14.096Z,38.50
2018-10-11T00:53:43.351Z,39.73
2018-10-11T00:56:12.726Z,38.27
2018-10-11T00:58:44.353Z,39.30
2018-10-11T01:01:13.586Z,37.77
2018-10-11T01:03:42.750Z,42.70
2018-10-11T01:06:12.257Z,36.30
2018-10-11T01:08:42.769Z,41.53
2018-10-11T01:11:11.937Z,46.80
2018-10-11T01:13:41.201Z,44.07
2018-10-11T01:16:10.510Z,44.37
2018-10-11T01:18:49.286Z,48.00
2018-10-11T01:21:18.667Z,48.90
2018-10-11T01:23:48.766Z,46.53
2018-10-11T01:26:17.895Z,41.73
2018-10-11T01:28:47.058Z,51.03
2018-10-11T01:31:22.272Z,55.30
2018-10-11T01:33:52.395Z,40.93
2018-10-11T01:36:22.085Z,47.90
2018-10-11T01:38:53.113Z,49.60
2018-10-11T01:41:23.073Z,51.07
2018-10-11T01:43:52.255Z,44.03
2018-10-11T01:46:21.535Z,42.37
2018-10-11T01:48:50.705Z,40.50
2018-10-11T01:51:20.362Z,45.00
2018-10-11T01:53:49.547Z,41.27
2018-10-11T01:56:18.822Z,44.30
2018-10-11T01:58:48.070Z,41.53
2018-10-11T02:01:17.572Z,41.07
2018-10-11T02:03:47.497Z,40.90
2018-10-11T02:06:16.674Z,37.43
2018-10-11T02:08:45.910Z,35.60
2018-10-11T02:11:15.132Z,40.20
2018-10-11T02:13:44.706Z,39.20
2018-10-11T02:16:13.874Z,34.93
2018-10-11T02:18:43.265Z,34.93
2018-10-11T02:21:12.486Z,31.93
2018-10-11T02:23:41.735Z,35.17
2018-10-11T02:26:10.945Z,34.00
2018-10-11T02:28:40.186Z,35.80
2018-10-11T02:31:09.391Z,38.53
2018-10-11T02:33:39.034Z,36.70
2018-10-11T02:36:08.230Z,39.30
2018-10-11T02:38:37.469Z,40.07
2018-10-11T02:41:07.188Z,46.17
2018-10-11T02:43:37.083Z,42.67
2018-10-11T02:46:09.053Z,46.57
2018-10-11T02:48:38.536Z,44.87
2018-10-11T02:51:07.762Z,43.70
2018-10-11T02:53:37.033Z,38.20
2018-10-11T02:56:06.767Z,46.43
2018-10-11T02:58:52.912Z,47.07
2018-10-11T03:01:23.089Z,48.87
2018-10-11T03:03:58.717Z,49.77
2018-10-11T03:06:28.446Z,46.90
2018-10-11T03:08:57.621Z,41.80
2018-10-11T03:11:27.697Z,43.20
2018-10-11T03:13:57.165Z,50.67
2018-10-11T03:16:26.355Z,52.10
2018-10-11T03:18:57.818Z,51.33
2018-10-11T03:21:27.596Z,58.80
2018-10-11T03:23:57.332Z,54.77
2018-10-11T03:26:27.439Z,57.57
2018-10-11T03:28:56.867Z,58.20
2018-10-11T03:31:28.514Z,54.23
2018-10-11T03:33:59.865Z,53.10
2018-10-11T03:36:29.585Z,53.10
2018-10-11T03:38:58.793Z,53.17
2018-10-11T03:41:28.439Z,58.27
2018-10-11T03:43:57.720Z,60.03
2018-10-11T03:46:27.830Z,56.97
2018-10-11T03:48:57.005Z,55.47
2018-10-11T03:51:26.186Z,59.13
2018-10-11T03:53:55.403Z,51.10
2018-10-11T03:56:24.597Z,60.50
2018-10-11T03:58:53.794Z,59.37
2018-10-11T04:01:23.350Z,51.90
2018-10-11T04:03:53.269Z,63.70
2018-10-11T04:06:22.549Z,55.20
2018-10-11T04:08:51.812Z,59.73
2018-10-11T04:11:20.986Z,50.00
2018-10-11T04:13:50.118Z,57.37
2018-10-11T04:16:19.285Z,59.87
2018-10-11T04:18:48.497Z,59.13
2018-10-11T04:21:17.652Z,56.37
2018-10-11T04:23:49.222Z,60.77
2018-10-11T04:26:18.350Z,56.33
2018-10-11T04:28:47.478Z,57.40
2018-10-11T04:31:19.005Z,62.27
2018-10-11T04:33:48.244Z,59.30
2018-10-11T04:36:17.474Z,48.80
2018-10-11T04:38:46.535Z,57.87
2018-10-11T04:41:15.666Z,59.87
2018-10-11T04:43:46.091Z,55.93
2018-10-11T04:46:15.181Z,62.77
2018-10-11T04:48:44.350Z,63.13
2018-10-11T04:51:14.162Z,69.90
2018-10-11T04:53:43.330Z,65.73
2018-10-11T04:56:13.993Z,68.57
2018-10-11T04:58:43.134Z,67.30
2018-10-11T05:01:12.345Z,62.87
2018-10-11T05:03:41.470Z,57.63
2018-10-11T05:06:10.599Z,63.27
2018-10-11T05:08:39.738Z,60.83
2018-10-11T05:11:08.895Z,61.23
2018-10-11T05:13:43.640Z,63.87
2018-10-11T05:16:13.334Z,66.87
2018-10-11T05:18:45.174Z,66.10
2018-10-11T05:21:16.137Z,71.23
2018-10-11T05:23:45.970Z,65.40
2018-10-11T05:26:15.284Z,72.40
2018-10-11T05:28:43.156Z,70.67
2018-10-11T05:31:12.364Z,73.80
2018-10-11T05:33:42.705Z,73.30
2018-10-11T05:36:12.279Z,72.03
2018-10-11T05:38:41.757Z,69.30
2018-10-11T05:41:11.854Z,64.97
2018-10-11T05:43:41.611Z,68.70
2018-10-11T05:46:17.924Z,75.80
2018-10-11T05:48:47.517Z,74.30
2018-10-11T05:51:17.230Z,71.07
2018-10-11T05:53:47.258Z,74.13
2018-10-11T05:56:19.130Z,75.30
2018-10-11T05:58:48.474Z,77.20
2018-10-11T06:01:17.938Z,73.43
2018-10-11T06:03:47.255Z,73.07
2018-10-11T06:06:16.649Z,68.97
2018-10-11T06:08:46.559Z,70.27
2018-10-11T06:11:16.166Z,62.80
2018-10-11T06:13:46.582Z,69.77
2018-10-11T06:16:15.820Z,68.50
2018-10-11T06:18:45.493Z,73.20
2018-10-11T06:21:15.405Z,69.03
2018-10-11T06:23:45.066Z,67.00
2018-10-11T06:26:14.613Z,64.00
2018-10-11T06:28:44.258Z,55.43
2018-10-11T06:31:13.806Z,53.93
2018-10-11T06:33:44.920Z,43.60
2018-10-11T06:36:14.861Z,40.43
2018-10-11T06:38:43.841Z,39.03
2018-10-11T06:41:12.990Z,32.47
2018-10-11T06:43:42.102Z,31.20
2018-10-11T06:46:11.322Z,27.63
2018-10-11T06:48:40.485Z,27.27
2018-10-11T06:51:09.882Z,27.77
2018-10-11T06:53:39.799Z,20.80
2018-10-11T06:56:09.146Z,18.87
2018-10-11T06:58:38.291Z,22.63
2018-10-11T07:01:07.650Z,18.80
2018-10-11T07:03:39.298Z,19.10
2018-10-11T07:06:08.487Z,20.60
2018-10-11T07:08:37.629Z,21.77
2018-10-11T07:11:06.779Z,22.40
2018-10-11T07:13:35.918Z,20.17
2018-10-11T07:16:05.817Z,21.60
2018-10-11T07:18:34.941Z,20.20
2018-10-11T07:21:04.082Z,20.53
2018-10-11T07:23:33.902Z,21.13
2018-10-11T07:26:03.269Z,21.87
2018-10-11T07:28:32.738Z,22.13
2018-10-11T07:31:01.975Z,22.70
2018-10-11T07:33:31.226Z,22.47
2018-10-11T07:36:00.538Z,24.10
2018-10-11T07:38:29.402Z,22.80
2018-10-11T07:40:58.651Z,23.73
2018-10-11T07:43:27.797Z,24.23
2018-10-11T07:45:57.182Z,23.10
2018-10-11T07:48:26.301Z,21.53
2018-10-11T07:50:55.419Z,22.03
2018-10-11T07:53:24.518Z,20.80
2018-10-11T07:55:53.674Z,21.37
2018-10-11T07:58:22.786Z,22.10
2018-10-11T08:00:52.361Z,19.70
2018-10-11T08:03:21.520Z,22.67
2018-10-11T08:05:50.750Z,21.90
2018-10-11T08:08:19.879Z,22.53
2018-10-11T08:10:49.067Z,21.47
2018-10-11T08:13:18.457Z,21.40
2018-10-11T08:15:47.586Z,20.60
2018-10-11T08:18:16.718Z,21.07
2018-10-11T08:20:45.855Z,20.90
2018-10-11T08:23:15.438Z,21.73
2018-10-11T08:25:45.185Z,21.00
2018-10-11T08:28:14.202Z,22.23
2018-10-11T08:30:43.390Z,21.30
2018-10-11T08:33:12.743Z,23.23
2018-10-11T08:35:42.385Z,23.00
2018-10-11T08:38:11.724Z,22.70
2018-10-11T08:40:40.755Z,22.70
2018-10-11T08:43:09.934Z,25.10
2018-10-11T08:45:39.126Z,23.60
2018-10-11T08:48:08.675Z,25.00
2018-10-11T08:50:37.864Z,23.27
2018-10-11T08:53:08.129Z,24.50
2018-10-11T08:55:37.700Z,20.73
2018-10-11T08:58:06.782Z,22.23
2018-10-11T09:00:35.891Z,20.03
2018-10-11T09:03:05.923Z,21.10
2018-10-11T09:05:35.317Z,19.50
2018-10-11T09:08:04.669Z,18.77
2018-10-11T09:10:38.345Z,19.77
2018-10-11T09:13:03.966Z,21.33
2018-10-11T09:15:33.141Z,17.47
2018-10-11T09:18:02.401Z,19.57
2018-10-11T09:20:32.626Z,20.47
2018-10-11T09:23:02.439Z,19.80
2018-10-11T09:25:34.751Z,18.97
2018-10-11T09:28:04.064Z,18.53
2018-10-11T09:30:33.803Z,18.80
2018-10-11T09:33:02.978Z,16.97
2018-10-11T09:35:33.751Z,20.23
2018-10-11T09:38:02.930Z,18.47
2018-10-11T09:40:32.276Z,18.90
2018-10-11T09:43:02.344Z,19.30
2018-10-11T09:45:30.870Z,17.87
2018-10-11T09:47:59.781Z,19.20
2018-10-11T09:50:27.813Z,18.67
2018-10-11T09:52:57.320Z,18.13
2018-10-11T09:55:27.870Z,18.50
2018-10-11T09:57:57.082Z,20.63
2018-10-11T10:00:31.514Z,17.80
2018-10-11T10:03:00.643Z,18.27
2018-10-11T10:05:29.777Z,19.40
2018-10-11T10:07:59.342Z,18.13
2018-10-11T10:10:28.473Z,16.83
2018-10-11T10:12:57.618Z,17.43
2018-10-11T10:15:27.521Z,18.40
2018-10-11T10:17:56.685Z,16.17
2018-10-11T10:20:26.541Z,16.53
2018-10-11T10:22:55.670Z,19.50
2018-10-11T10:25:25.024Z,16.03
2018-10-11T10:27:55.050Z,16.97
2018-10-11T10:30:30.322Z,17.33
2018-10-11T10:33:00.169Z,16.60
2018-10-11T10:35:29.593Z,17.93
2018-10-11T10:38:00.014Z,16.70
2018-10-11T10:40:29.147Z,15.87
2018-10-11T10:42:58.023Z,17.10
2018-10-11T10:45:27.202Z,16.33
2018-10-11T10:47:56.350Z,15.70
2018-10-11T10:50:25.465Z,14.33
2018-10-11T10:52:55.386Z,13.40
2018-10-11T10:55:24.550Z,13.80
2018-10-11T10:57:53.743Z,15.70
2018-10-11T11:00:23.870Z,14.50
2018-10-11T11:02:53.046Z,12.33
2018-10-11T11:05:22.222Z,13.53
2018-10-11T11:07:51.342Z,12.40
2018-10-11T11:10:20.723Z,13.80
2018-10-11T11:12:50.042Z,13.50
2018-10-11T11:15:19.327Z,13.60
2018-10-11T11:17:48.526Z,12.90
2018-10-11T11:20:17.355Z,12.80
2018-10-11T11:22:46.644Z,11.73
2018-10-11T11:25:16.197Z,11.37
2018-10-11T11:27:46.005Z,12.73
2018-10-11T11:30:14.697Z,12.57
2018-10-11T11:32:43.923Z,13.30
2018-10-11T11:35:13.066Z,11.30
2018-10-11T11:37:42.254Z,13.20
2018-10-11T11:40:14.070Z,11.80
2018-10-11T11:42:43.290Z,12.17
2018-10-11T11:45:12.537Z,13.13
2018-10-11T11:47:42.193Z,12.87
2018-10-11T11:50:11.541Z,13.00
2018-10-11T11:52:40.494Z,13.60
2018-10-11T11:55:09.645Z,13.67
2018-10-11T11:57:38.850Z,13.90
2018-10-11T12:00:08.370Z,12.13
2018-10-11T12:02:37.594Z,13.30
2018-10-11T12:05:06.884Z,14.60
2018-10-11T12:07:36.027Z,13.40
2018-10-11T12:10:05.646Z,12.80
2018-10-11T12:13:10.680Z,12.47
2018-10-11T12:15:40.910Z,12.67
2018-10-11T12:18:10.982Z,12.10
2018-10-11T12:20:40.147Z,11.97
2018-10-11T12:23:09.980Z,10.83
2018-10-11T12:25:39.362Z,11.70
2018-10-11T12:28:08.993Z,11.13
2018-10-11T12:30:37.071Z,11.30
2018-10-11T12:33:06.779Z,10.90
2018-10-11T12:35:36.494Z,11.23
2018-10-11T12:38:05.230Z,10.47
2018-10-11T12:40:34.364Z,10.67
2018-10-11T12:43:03.501Z,9.33
2018-10-11T12:45:33.843Z,10.73
2018-10-11T12:48:03.054Z,11.00
2018-10-11T12:50:32.875Z,12.80
2018-10-11T12:53:02.094Z,11.77
2018-10-11T12:55:32.718Z,12.50
2018-10-11T12:58:01.605Z,9.77
2018-10-11T13:00:31.032Z,11.40
2018-10-11T13:03:00.990Z,11.13
2018-10-11T13:05:30.354Z,10.43
2018-10-11T13:07:59.866Z,9.90
2018-10-11T13:10:29.213Z,11.43
2018-10-11T13:13:05.539Z,12.13
2018-10-11T13:15:28.866Z,9.93
2018-10-11T13:17:57.673Z,11.40
2018-10-11T13:20:26.963Z,10.60
2018-10-11T13:22:56.092Z,10.40
2018-10-11T13:25:25.187Z,11.20
2018-10-11T13:27:54.356Z,10.90
2018-10-11T13:30:24.270Z,12.10
2018-10-11T13:32:54.238Z,11.90
2018-10-11T13:35:23.757Z,11.57
2018-10-11T13:37:53.125Z,11.10
2018-10-11T13:40:22.485Z,10.77
2018-10-11T13:42:53.038Z,11.23
2018-10-11T13:45:22.366Z,11.53
2018-10-11T13:47:51.691Z,10.80
2018-10-11T13:50:25.986Z,10.73
2018-10-11T13:52:55.775Z,10.93
2018-10-11T13:55:24.702Z,11.73
2018-10-11T13:57:53.982Z,11.67
2018-10-11T14:00:23.166Z,11.10
2018-10-11T14:02:52.313Z,11.20
2018-10-11T14:05:22.206Z,12.30
2018-10-11T14:07:51.369Z,11.77
2018-10-11T14:10:21.122Z,12.00
2018-10-11T14:12:50.289Z,11.47
2018-10-11T14:15:19.574Z,10.73
2018-10-11T14:17:49.114Z,10.80
2018-10-11T14:20:18.399Z,11.27
2018-10-11T14:22:47.778Z,11.10
2018-10-11T14:25:17.457Z,11.50
2018-10-11T14:27:48.193Z,11.67
2018-10-11T14:30:18.007Z,11.60
2018-10-11T14:32:47.182Z,12.13
2018-10-11T14:35:15.911Z,12.27
2018-10-11T14:37:45.037Z,10.03
2018-10-11T14:40:14.345Z,11.50
2018-10-11T14:42:43.832Z,10.40
2018-10-11T14:45:14.318Z,11.40
2018-10-11T14:47:43.429Z,12.00
2018-10-11T14:50:12.594Z,12.03
2018-10-11T14:52:41.786Z,10.87
2018-10-11T14:55:11.378Z,12.03
2018-10-11T14:57:40.635Z,10.97
2018-10-11T15:00:10.018Z,11.97
2018-10-11T15:02:39.259Z,12.00
2018-10-11T15:05:08.842Z,11.73
2018-10-11T15:07:37.978Z,11.20
2018-10-11T15:10:07.154Z,13.33
2018-10-11T15:12:36.830Z,11.10
2018-10-11T15:15:06.521Z,12.60
2018-10-11T15:17:35.891Z,11.53
2018-10-11T15:20:05.634Z,12.53
2018-10-11T15:22:35.622Z,11.43
2018-10-11T15:25:04.654Z,12.77
2018-10-11T15:27:34.056Z,12.30
2018-10-11T15:30:03.787Z,10.67
2018-10-11T15:32:33.690Z,11.77
2018-10-11T15:35:03.215Z,11.70
2018-10-11T15:37:32.685Z,10.07
2018-10-11T15:40:02.766Z,10.30
2018-10-11T15:42:32.094Z,10.67
2018-10-11T15:45:01.495Z,10.70
2018-10-11T15:47:30.626Z,11.67
2018-10-11T15:50:00.529Z,9.37
2018-10-11T15:52:30.068Z,11.07
2018-10-11T15:54:59.060Z,9.73
2018-10-11T15:57:28.194Z,12.00
2018-10-11T15:59:57.335Z,11.43
2018-10-11T16:02:30.358Z,11.13
2018-10-11T16:04:59.734Z,10.63
2018-10-11T16:07:29.073Z,10.47
2018-10-11T16:09:58.329Z,11.17
2018-10-11T16:12:27.630Z,11.60
2018-10-11T16:14:57.317Z,11.73
2018-10-11T16:17:26.598Z,11.40
2018-10-11T16:19:55.982Z,11.83
2018-10-11T16:22:25.275Z,12.03
2018-10-11T16:24:58.675Z,12.67
2018-10-11T16:27:27.994Z,11.37
2018-10-11T16:29:58.146Z,13.27
2018-10-11T16:32:27.338Z,13.37
2018-10-11T16:34:56.786Z,12.17
2018-10-11T16:37:25.958Z,11.70
2018-10-11T16:39:56.426Z,13.60
2018-10-11T16:42:25.601Z,14.43
2018-10-11T16:44:55.895Z,13.60
2018-10-11T16:47:26.134Z,13.80
2018-10-11T16:49:55.357Z,13.53
2018-10-11T16:52:25.171Z,12.73
2018-10-11T16:54:54.317Z,12.57
2018-10-11T16:57:23.498Z,13.30
2018-10-11T16:59:52.730Z,13.97
2018-10-11T17:02:22.491Z,13.67
2018-10-11T17:04:53.201Z,12.50
2018-10-11T17:07:23.526Z,13.40
2018-10-11T17:09:52.684Z,12.40
2018-10-11T17:12:22.021Z,14.80
2018-10-11T17:14:50.918Z,13.40
2018-10-11T17:17:20.333Z,12.53
2018-10-11T17:19:49.906Z,13.30
2018-10-11T17:22:19.056Z,11.93
2018-10-11T17:24:50.051Z,10.93
2018-10-11T17:27:19.354Z,13.30
2018-10-11T17:29:48.576Z,12.63
2018-10-11T17:32:17.646Z,13.07
2018-10-11T17:34:46.690Z,13.37
2018-10-11T17:37:16.406Z,13.47
2018-10-11T17:39:46.321Z,13.10
2018-10-11T17:42:16.231Z,12.53
2018-10-11T17:44:46.359Z,12.80
2018-10-11T17:47:15.610Z,13.87
2018-10-11T17:49:44.441Z,15.97
2018-10-11T17:52:13.755Z,14.93
2018-10-11T17:54:48.504Z,14.43
2018-10-11T17:57:17.617Z,13.40
2018-10-11T17:59:46.806Z,13.07
2018-10-11T18:02:16.199Z,13.07
2018-10-11T18:04:45.454Z,13.03
2018-10-11T18:07:15.759Z,14.40
2018-10-11T18:09:45.270Z,14.97
2018-10-11T18:12:14.582Z,17.33
2018-10-11T18:14:44.058Z,16.90
2018-10-11T18:17:13.327Z,16.63
2018-10-11T18:19:42.987Z,15.10
2018-10-11T18:22:12.274Z,16.67
2018-10-11T18:24:41.478Z,15.00
2018-10-11T18:27:10.782Z,16.10
2018-10-11T18:29:41.711Z,15.60
2018-10-11T18:32:10.986Z,19.00
2018-10-11T18:34:41.945Z,20.23
2018-10-11T18:37:11.815Z,18.20
2018-10-11T18:39:41.126Z,16.87
2018-10-11T18:42:10.518Z,14.60
2018-10-11T18:44:39.996Z,15.27
2018-10-11T18:47:09.818Z,17.20
2018-10-11T18:49:39.150Z,17.37
2018-10-11T18:52:08.357Z,17.73
2018-10-11T18:54:37.702Z,15.03
2018-10-11T18:57:06.958Z,17.00
2018-10-11T18:59:36.102Z,15.37
2018-10-11T19:02:05.289Z,15.43
2018-10-11T19:04:35.022Z,16.87
2018-10-11T19:07:04.190Z,16.30
2018-10-11T19:09:33.335Z,17.47
2018-10-11T19:12:02.495Z,19.07
2018-10-11T19:14:31.621Z,17.77
2018-10-11T19:17:00.793Z,18.60
2018-10-11T19:19:30.034Z,18.17
2018-10-11T19:22:02.487Z,15.50
2018-10-11T19:24:31.658Z,16.50
2018-10-11T19:27:01.842Z,14.93
2018-10-11T19:29:31.030Z,15.50
2018-10-11T19:32:00.753Z,14.20
2018-10-11T19:34:29.930Z,15.73
2018-10-11T19:36:59.848Z,14.83
2018-10-11T19:39:29.137Z,15.97
2018-10-11T19:41:58.297Z,13.63
2018-10-11T19:44:28.446Z,13.57
2018-10-11T19:46:57.844Z,14.33
2018-10-11T19:49:27.127Z,15.30
2018-10-11T19:51:56.802Z,14.90
2018-10-11T19:54:25.950Z,16.27
2018-10-11T19:56:55.349Z,16.20
2018-10-11T19:59:24.498Z,16.17
2018-10-11T20:01:54.190Z,16.53
2018-10-11T20:04:24.904Z,15.53
2018-10-11T20:06:54.449Z,15.60
2018-10-11T20:09:24.013Z,14.93
2018-10-11T20:11:53.839Z,15.63
2018-10-11T20:14:23.747Z,17.47
2018-10-11T20:16:53.635Z,15.53
2018-10-11T20:19:23.526Z,17.80
2018-10-11T20:21:54.298Z,15.00
2018-10-11T20:24:23.111Z,18.77
2018-10-11T20:26:52.198Z,17.13
2018-10-11T20:29:22.092Z,15.80
2018-10-11T20:31:51.581Z,17.60
2018-10-11T20:34:20.425Z,16.83
2018-10-11T20:36:49.745Z,16.50
2018-10-11T20:39:18.897Z,15.90
2018-10-11T20:41:48.490Z,17.67
2018-10-11T20:44:17.726Z,16.63
2018-10-11T20:46:47.094Z,17.30
2018-10-11T20:49:16.213Z,16.50
2018-10-11T20:51:46.931Z,17.53
2018-10-11T20:54:16.755Z,15.90
2018-10-11T20:56:45.942Z,19.57
2018-10-11T20:59:15.104Z,17.00
2018-10-11T21:01:45.621Z,18.10
2018-10-11T21:04:14.755Z,17.87
2018-10-11T21:06:43.915Z,22.53
2018-10-11T21:09:14.179Z,17.97
2018-10-11T21:11:43.541Z,20.37
2018-10-11T21:14:12.966Z,16.17
2018-10-11T21:16:41.854Z,16.30
2018-10-11T21:19:11.086Z,17.47
2018-10-11T21:21:40.333Z,17.27
2018-10-11T21:24:09.659Z,16.30
2018-10-11T21:26:38.784Z,19.37
2018-10-11T21:29:07.979Z,16.27
2018-10-11T21:31:37.161Z,17.90
2018-10-11T21:34:06.775Z,17.17
2018-10-11T21:36:36.256Z,16.57
2018-10-11T21:39:10.038Z,17.20
2018-10-11T21:41:40.514Z,17.50
2018-10-11T21:44:10.018Z,16.43
2018-10-11T21:46:39.547Z,17.13
2018-10-11T21:49:09.082Z,17.67
2018-10-11T21:51:38.922Z,16.97
2018-10-11T21:54:10.170Z,17.53
2018-10-11T21:56:39.319Z,17.30
2018-10-11T21:59:08.456Z,16.43
2018-10-11T22:01:37.615Z,18.03
2018-10-11T22:04:06.763Z,17.73
2018-10-11T22:06:36.030Z,16.80
2018-10-11T22:09:06.482Z,17.00
2018-10-11T22:11:36.038Z,17.03
2018-10-11T22:14:05.817Z,17.50
2018-10-11T22:16:35.607Z,16.87
2018-10-11T22:19:04.750Z,18.23
2018-10-11T22:21:33.867Z,18.10
2018-10-11T22:24:03.003Z,18.87
2018-10-11T22:26:32.141Z,18.77
2018-10-11T22:29:00.921Z,16.80
2018-10-11T22:31:30.221Z,18.10
2018-10-11T22:33:59.625Z,18.97
2018-10-11T22:36:28.935Z,18.10
2018-10-11T22:38:57.886Z,18.60
2018-10-11T22:41:26.797Z,17.77
2018-10-11T22:43:56.631Z,18.40
2018-10-11T22:46:25.379Z,18.47
2018-10-11T22:48:56.371Z,15.70
2018-10-11T22:51:26.002Z,17.63
2018-10-11T22:53:56.246Z,17.03
2018-10-11T22:56:25.426Z,18.87
2018-10-11T22:58:56.002Z,18.00
2018-10-11T23:01:25.186Z,17.93
2018-10-11T23:03:54.395Z,17.80
2018-10-11T23:06:24.128Z,17.30
2018-10-11T23:08:53.318Z,16.07
2018-10-11T23:11:23.490Z,16.93
2018-10-11T23:13:52.694Z,18.60
2018-10-11T23:16:21.846Z,18.33
2018-10-11T23:18:52.091Z,17.70
2018-10-11T23:21:21.244Z,16.37
2018-10-11T23:23:50.422Z,17.67
2018-10-11T23:26:19.578Z,18.77
2018-10-11T23:28:49.206Z,19.30
2018-10-11T23:31:18.346Z,20.10
2018-10-11T23:33:47.490Z,19.50
2018-10-11T23:36:16.626Z,18.33
2018-10-11T23:38:45.810Z,19.10
2018-10-11T23:41:17.159Z,19.83
2018-10-11T23:43:46.301Z,20.37
2018-10-11T23:46:15.457Z,18.43
2018-10-11T23:48:44.614Z,18.93
2018-10-11T23:51:13.858Z,21.87
2018-10-11T23:53:43.138Z,19.33
2018-10-11T23:56:12.389Z,21.17
2018-10-11T23:58:41.619Z,20.00
